createdAt,value
2018-12-15T00:00:49.810Z,976.51
2018-12-15T00:01:49.791Z,976.53
2018-12-15T00:02:49.771Z,976.56
2018-12-15T00:03:49.753Z,976.57
2018-12-15T00:04:49.735Z,976.57
2018-12-15T00:05:49.717Z,976.61
2018-12-15T00:06:49.708Z,976.66
2018-12-15T00:07:49.680Z,976.60
2018-12-15T00:08:49.663Z,976.63
2018-12-15T00:09:49.646Z,976.63
2018-12-15T00:10:49.629Z,976.63
2018-12-15T00:11:49.610Z,976.65
2018-12-15T00:12:49.593Z,976.64
2018-12-15T00:13:49.578Z,976.63
2018-12-15T00:14:49.556Z,976.64
2018-12-15T00:15:49.538Z,976.62
2018-12-15T00:16:49.521Z,976.61
2018-12-15T00:17:49.501Z,976.63
2018-12-15T00:18:49.487Z,976.59
2018-12-15T00:19:49.468Z,976.57
2018-12-15T00:20:49.449Z,976.59
2018-12-15T00:21:49.431Z,976.56
2018-12-15T00:22:49.413Z,976.57
2018-12-15T00:23:49.393Z,976.58
2018-12-15T00:24:49.377Z,976.57
2018-12-15T00:25:49.360Z,976.62
2018-12-15T00:26:49.342Z,976.59
2018-12-15T00:27:49.323Z,976.60
2018-12-15T00:28:49.306Z,976.62
2018-12-15T00:29:49.287Z,976.59
2018-12-15T00:30:49.269Z,976.60
2018-12-15T00:31:49.252Z,976.64
2018-12-15T00:32:49.234Z,976.64
2018-12-15T00:33:49.216Z,976.63
2018-12-15T00:34:49.197Z,976.67
2018-12-15T00:35:49.178Z,976.63
2018-12-15T00:36:49.162Z,976.61
2018-12-15T00:37:49.142Z,976.63
2018-12-15T00:38:49.125Z,976.66
2018-12-15T00:39:49.105Z,976.61
2018-12-15T00:40:49.087Z,976.63
2018-12-15T00:41:49.069Z,976.59
2018-12-15T00:42:49.052Z,976.58
2018-12-15T00:43:49.033Z,976.61
2018-12-15T00:44:49.015Z,976.67
2018-12-15T00:45:48.996Z,976.61
2018-12-15T00:46:48.980Z,976.68
2018-12-15T00:47:48.959Z,976.69
2018-12-15T00:48:48.945Z,976.60
2018-12-15T00:49:48.923Z,976.62
2018-12-15T00:50:48.907Z,976.65
2018-12-15T00:51:48.891Z,976.62
2018-12-15T00:52:48.870Z,976.62
2018-12-15T00:53:48.850Z,976.56
2018-12-15T00:54:48.834Z,976.64
2018-12-15T00:55:48.817Z,976.68
2018-12-15T00:56:48.796Z,976.74
2018-12-15T00:57:48.779Z,976.71
2018-12-15T00:58:48.761Z,976.73
2018-12-15T00:59:48.746Z,976.72
2018-12-15T01:00:48.723Z,976.75
2018-12-15T01:01:48.706Z,976.80
2018-12-15T01:02:48.686Z,976.78
2018-12-15T01:03:48.670Z,976.78
2018-12-15T01:04:48.650Z,976.82
2018-12-15T01:05:48.632Z,976.83
2018-12-15T01:06:48.617Z,976.88
2018-12-15T01:07:48.595Z,976.89
2018-12-15T01:08:48.578Z,976.87
2018-12-15T01:09:48.559Z,976.86
2018-12-15T01:10:48.542Z,976.90
2018-12-15T01:11:48.520Z,976.90
2018-12-15T01:12:48.503Z,976.94
2018-12-15T01:13:48.483Z,976.96
2018-12-15T01:14:48.465Z,976.98
2018-12-15T01:15:48.446Z,977.03
2018-12-15T01:16:48.430Z,976.94
2018-12-15T01:17:48.411Z,976.97
2018-12-15T01:18:48.396Z,976.98
2018-12-15T01:19:48.373Z,976.98
2018-12-15T01:20:48.356Z,977.05
2018-12-15T01:21:48.338Z,977.01
2018-12-15T01:22:48.319Z,977.06
2018-12-15T01:23:48.300Z,977.04
2018-12-15T01:24:48.282Z,977.08
2018-12-15T01:25:48.262Z,977.04
2018-12-15T01:26:48.246Z,977.12
2018-12-15T01:27:48.224Z,977.03
2018-12-15T01:28:48.208Z,977.05
2018-12-15T01:29:48.189Z,977.08
2018-12-15T01:30:48.173Z,977.04
2018-12-15T01:31:48.151Z,977.02
2018-12-15T01:32:48.132Z,977.05
2018-12-15T01:33:48.115Z,977.10
2018-12-15T01:34:48.099Z,977.13
2018-12-15T01:35:48.077Z,977.12
2018-12-15T01:36:48.059Z,977.15
2018-12-15T01:37:48.041Z,977.18
2018-12-15T01:38:48.023Z,977.14
2018-12-15T01:39:48.041Z,977.13
2018-12-15T01:40:47.986Z,977.14
2018-12-15T01:41:47.973Z,977.15
2018-12-15T01:42:47.950Z,977.15
2018-12-15T01:43:47.932Z,977.14
2018-12-15T01:44:47.911Z,977.13
2018-12-15T01:45:47.892Z,977.10
2018-12-15T01:46:47.882Z,977.14
2018-12-15T01:47:47.856Z,977.12
2018-12-15T01:48:47.838Z,977.15
2018-12-15T01:49:47.820Z,977.14
2018-12-15T01:50:47.803Z,977.14
2018-12-15T01:51:47.780Z,977.16
2018-12-15T01:52:47.762Z,977.24
2018-12-15T01:53:47.744Z,977.21
2018-12-15T01:54:47.728Z,977.22
2018-12-15T01:55:47.708Z,977.24
2018-12-15T01:56:47.688Z,977.29
2018-12-15T01:57:47.670Z,977.29
2018-12-15T01:58:47.653Z,977.32
2018-12-15T01:59:47.632Z,977.32
2018-12-15T02:00:47.613Z,977.38
2018-12-15T02:01:47.597Z,977.39
2018-12-15T02:02:47.577Z,977.38
2018-12-15T02:03:47.559Z,977.41
2018-12-15T02:04:47.540Z,977.39
2018-12-15T02:05:47.522Z,977.40
2018-12-15T02:06:47.502Z,977.45
2018-12-15T02:07:47.483Z,977.45
2018-12-15T02:08:47.467Z,977.46
2018-12-15T02:09:47.448Z,977.46
2018-12-15T02:10:47.430Z,977.45
2018-12-15T02:11:47.411Z,977.48
2018-12-15T02:12:47.391Z,977.48
2018-12-15T02:13:47.373Z,977.48
2018-12-15T02:14:47.357Z,977.49
2018-12-15T02:15:47.335Z,977.53
2018-12-15T02:16:47.319Z,977.56
2018-12-15T02:17:47.300Z,977.58
2018-12-15T02:18:47.284Z,977.53
2018-12-15T02:19:47.264Z,977.58
2018-12-15T02:20:47.246Z,977.55
2018-12-15T02:21:47.225Z,977.53
2018-12-15T02:22:47.211Z,977.61
2018-12-15T02:23:47.191Z,977.58
2018-12-15T02:24:47.171Z,977.59
2018-12-15T02:25:47.153Z,977.61
2018-12-15T02:26:47.135Z,977.62
2018-12-15T02:27:47.115Z,977.64
2018-12-15T02:28:47.096Z,977.66
2018-12-15T02:29:47.079Z,977.69
2018-12-15T02:30:47.727Z,977.66
2018-12-15T02:31:47.043Z,977.70
2018-12-15T02:32:47.025Z,977.74
2018-12-15T02:33:47.006Z,977.71
2018-12-15T02:34:46.988Z,977.74
2018-12-15T02:35:46.971Z,977.74
2018-12-15T02:36:46.953Z,977.74
2018-12-15T02:37:46.931Z,977.72
2018-12-15T02:38:46.916Z,977.70
2018-12-15T02:39:46.894Z,977.65
2018-12-15T02:40:46.876Z,977.69
2018-12-15T02:41:47.375Z,977.68
2018-12-15T02:42:46.840Z,977.72
2018-12-15T02:43:46.830Z,977.64
2018-12-15T02:44:46.804Z,977.68
2018-12-15T02:45:46.788Z,977.68
2018-12-15T02:46:46.767Z,977.67
2018-12-15T02:47:46.750Z,977.68
2018-12-15T02:48:46.734Z,977.71
2018-12-15T02:49:46.713Z,977.70
2018-12-15T02:50:46.694Z,977.72
2018-12-15T02:51:46.676Z,977.66
2018-12-15T02:52:46.657Z,977.64
2018-12-15T02:53:46.641Z,977.68
2018-12-15T02:54:46.620Z,977.71
2018-12-15T02:55:46.606Z,977.68
2018-12-15T02:56:46.585Z,977.70
2018-12-15T02:57:46.567Z,977.72
2018-12-15T02:58:46.547Z,977.71
2018-12-15T02:59:46.547Z,977.74
2018-12-15T03:00:46.518Z,977.77
2018-12-15T03:01:46.495Z,977.78
2018-12-15T03:02:46.476Z,977.81
2018-12-15T03:03:46.462Z,977.80
2018-12-15T03:04:46.441Z,977.78
2018-12-15T03:05:46.423Z,977.80
2018-12-15T03:06:46.404Z,977.80
2018-12-15T03:07:46.387Z,977.79
2018-12-15T03:08:46.364Z,977.80
2018-12-15T03:09:46.350Z,977.79
2018-12-15T03:10:46.330Z,977.81
2018-12-15T03:11:46.311Z,977.82
2018-12-15T03:12:46.292Z,977.83
2018-12-15T03:13:46.274Z,977.78
2018-12-15T03:14:46.259Z,977.79
2018-12-15T03:15:46.240Z,977.81
2018-12-15T03:16:46.218Z,977.83
2018-12-15T03:17:48.997Z,977.85
2018-12-15T03:18:46.184Z,977.77
2018-12-15T03:19:46.165Z,977.80
2018-12-15T03:20:46.147Z,977.82
2018-12-15T03:21:46.129Z,977.78
2018-12-15T03:22:46.111Z,977.79
2018-12-15T03:23:46.092Z,977.73
2018-12-15T03:24:46.074Z,977.77
2018-12-15T03:25:46.057Z,977.75
2018-12-15T03:26:46.036Z,977.76
2018-12-15T03:27:46.018Z,977.76
2018-12-15T03:28:45.999Z,977.74
2018-12-15T03:29:45.981Z,977.69
2018-12-15T03:30:45.973Z,977.68
2018-12-15T03:31:45.944Z,977.65
2018-12-15T03:32:45.935Z,977.69
2018-12-15T03:33:45.916Z,977.71
2018-12-15T03:34:45.894Z,977.74
2018-12-15T03:35:45.872Z,977.71
2018-12-15T03:36:45.855Z,977.71
2018-12-15T03:37:45.833Z,977.68
2018-12-15T03:38:45.816Z,977.68
2018-12-15T03:39:45.801Z,977.67
2018-12-15T03:40:45.779Z,977.66
2018-12-15T03:41:45.760Z,977.72
2018-12-15T03:42:45.752Z,977.69
2018-12-15T03:43:45.723Z,977.66
2018-12-15T03:44:45.705Z,977.69
2018-12-15T03:45:45.686Z,977.69
2018-12-15T03:46:45.667Z,977.68
2018-12-15T03:47:45.759Z,977.71
2018-12-15T03:48:45.631Z,977.67
2018-12-15T03:49:45.613Z,977.68
2018-12-15T03:50:45.596Z,977.67
2018-12-15T03:51:45.574Z,977.64
2018-12-15T03:52:45.557Z,977.68
2018-12-15T03:53:45.538Z,977.68
2018-12-15T03:54:45.520Z,977.67
2018-12-15T03:55:45.506Z,977.70
2018-12-15T03:56:45.481Z,977.68
2018-12-15T03:57:45.462Z,977.63
2018-12-15T03:58:45.445Z,977.67
2018-12-15T03:59:45.426Z,977.62
2018-12-15T04:00:45.409Z,977.64
2018-12-15T04:01:45.393Z,977.66
2018-12-15T04:02:45.371Z,977.67
2018-12-15T04:03:45.352Z,977.64
2018-12-15T04:04:45.335Z,977.68
2018-12-15T04:05:45.316Z,977.63
2018-12-15T04:06:45.299Z,977.56
2018-12-15T04:07:45.280Z,977.59
2018-12-15T04:08:45.263Z,977.65
2018-12-15T04:09:45.243Z,977.60
2018-12-15T04:10:45.224Z,977.61
2018-12-15T04:11:45.205Z,977.57
2018-12-15T04:12:45.401Z,977.58
2018-12-15T04:13:45.208Z,977.60
2018-12-15T04:14:45.154Z,977.57
2018-12-15T04:15:45.132Z,977.58
2018-12-15T04:16:45.115Z,977.57
2018-12-15T04:17:45.096Z,977.57
2018-12-15T04:18:45.078Z,977.59
2018-12-15T04:19:45.058Z,977.56
2018-12-15T04:20:45.040Z,977.51
2018-12-15T04:21:45.022Z,977.50
2018-12-15T04:22:45.006Z,977.52
2018-12-15T04:23:44.985Z,977.50
2018-12-15T04:24:44.967Z,977.53
2018-12-15T04:25:44.949Z,977.54
2018-12-15T04:26:44.932Z,977.51
2018-12-15T04:27:44.914Z,977.53
2018-12-15T04:28:44.893Z,977.53
2018-12-15T04:29:44.876Z,977.52
2018-12-15T04:30:44.858Z,977.50
2018-12-15T04:31:44.839Z,977.48
2018-12-15T04:32:45.382Z,977.48
2018-12-15T04:33:44.804Z,977.47
2018-12-15T04:34:44.788Z,977.45
2018-12-15T04:35:44.767Z,977.47
2018-12-15T04:36:44.747Z,977.49
2018-12-15T04:37:44.729Z,977.48
2018-12-15T04:38:44.713Z,977.47
2018-12-15T04:39:44.693Z,977.41
2018-12-15T04:40:44.674Z,977.45
2018-12-15T04:41:44.657Z,977.50
2018-12-15T04:42:44.638Z,977.46
2018-12-15T04:43:44.625Z,977.51
2018-12-15T04:44:44.601Z,977.52
2018-12-15T04:45:44.585Z,977.49
2018-12-15T04:46:44.565Z,977.53
2018-12-15T04:47:44.547Z,977.54
2018-12-15T04:48:44.531Z,977.53
2018-12-15T04:49:44.512Z,977.53
2018-12-15T04:50:44.493Z,977.53
2018-12-15T04:51:44.473Z,977.54
2018-12-15T04:52:44.470Z,977.53
2018-12-15T04:53:44.438Z,977.53
2018-12-15T04:54:44.419Z,977.57
2018-12-15T04:55:44.402Z,977.60
2018-12-15T04:56:44.382Z,977.55
2018-12-15T04:57:44.379Z,977.55
2018-12-15T04:58:44.348Z,977.59
2018-12-15T04:59:44.328Z,977.58
2018-12-15T05:00:44.310Z,977.52
2018-12-15T05:01:44.295Z,977.51
2018-12-15T05:02:44.356Z,977.53
2018-12-15T05:03:44.256Z,977.48
2018-12-15T05:05:44.223Z,977.51
2018-12-15T05:06:44.200Z,977.49
2018-12-15T05:07:44.182Z,977.48
2018-12-15T05:08:44.165Z,977.53
2018-12-15T05:09:44.147Z,977.53
2018-12-15T05:10:44.127Z,977.53
2018-12-15T05:11:44.110Z,977.54
2018-12-15T05:12:44.091Z,977.50
2018-12-15T05:13:44.073Z,977.53
2018-12-15T05:14:44.055Z,977.52
2018-12-15T05:15:44.036Z,977.57
2018-12-15T05:16:44.017Z,977.51
2018-12-15T05:17:44.001Z,977.54
2018-12-15T05:18:43.981Z,977.57
2018-12-15T05:19:43.961Z,977.51
2018-12-15T05:20:43.945Z,977.53
2018-12-15T05:21:43.927Z,977.49
2018-12-15T05:22:43.909Z,977.53
2018-12-15T05:23:43.889Z,977.59
2018-12-15T05:24:43.873Z,977.56
2018-12-15T05:25:43.853Z,977.56
2018-12-15T05:26:43.838Z,977.53
2018-12-15T05:27:43.816Z,977.55
2018-12-15T05:28:43.799Z,977.53
2018-12-15T05:29:43.783Z,977.55
2018-12-15T05:30:43.768Z,977.57
2018-12-15T05:31:43.741Z,977.53
2018-12-15T05:32:43.725Z,977.55
2018-12-15T05:33:43.704Z,977.52
2018-12-15T05:34:43.686Z,977.53
2018-12-15T05:35:43.669Z,977.53
2018-12-15T05:36:43.650Z,977.58
2018-12-15T05:37:43.632Z,977.58
2018-12-15T05:38:43.613Z,977.62
2018-12-15T05:39:43.595Z,977.62
2018-12-15T05:40:43.576Z,977.63
2018-12-15T05:41:43.559Z,977.61
2018-12-15T05:42:43.539Z,977.59
2018-12-15T05:43:43.519Z,977.59
2018-12-15T05:44:43.502Z,977.58
2018-12-15T05:45:43.485Z,977.62
2018-12-15T05:46:43.466Z,977.60
2018-12-15T05:47:43.446Z,977.63
2018-12-15T05:48:43.430Z,977.68
2018-12-15T05:49:43.412Z,977.73
2018-12-15T05:50:43.391Z,977.66
2018-12-15T05:51:43.372Z,977.71
2018-12-15T05:52:43.355Z,977.66
2018-12-15T05:53:43.336Z,977.62
2018-12-15T05:54:43.317Z,977.66
2018-12-15T05:55:43.302Z,977.65
2018-12-15T05:56:43.279Z,977.69
2018-12-15T05:57:43.263Z,977.77
2018-12-15T05:58:43.243Z,977.70
2018-12-15T05:59:43.227Z,977.66
2018-12-15T06:00:43.212Z,977.66
2018-12-15T06:01:43.191Z,977.63
2018-12-15T06:02:43.172Z,977.56
2018-12-15T06:03:43.156Z,977.54
2018-12-15T06:04:43.134Z,977.59
2018-12-15T06:05:43.114Z,977.62
2018-12-15T06:06:43.097Z,977.67
2018-12-15T06:07:43.078Z,977.66
2018-12-15T06:08:43.059Z,977.59
2018-12-15T06:09:43.042Z,977.67
2018-12-15T06:10:43.026Z,977.71
2018-12-15T06:11:43.003Z,977.60
2018-12-15T06:12:42.985Z,977.59
2018-12-15T06:13:42.966Z,977.59
2018-12-15T06:14:42.948Z,977.64
2018-12-15T06:15:42.930Z,977.57
2018-12-15T06:16:42.911Z,977.63
2018-12-15T06:17:42.893Z,977.65
2018-12-15T06:18:42.873Z,977.59
2018-12-15T06:19:42.854Z,977.60
2018-12-15T06:20:42.836Z,977.60
2018-12-15T06:21:42.817Z,977.59
2018-12-15T06:22:42.798Z,977.61
2018-12-15T06:23:42.781Z,977.64
2018-12-15T06:24:42.758Z,977.64
2018-12-15T06:25:42.742Z,977.64
2018-12-15T06:26:42.723Z,977.60
2018-12-15T06:27:42.704Z,977.70
2018-12-15T06:28:42.687Z,977.61
2018-12-15T06:29:42.666Z,977.68
2018-12-15T06:30:42.646Z,977.57
2018-12-15T06:31:42.628Z,977.61
2018-12-15T06:32:42.609Z,977.60
2018-12-15T06:33:42.591Z,977.59
2018-12-15T06:34:42.576Z,977.59
2018-12-15T06:35:42.552Z,977.55
2018-12-15T06:36:42.532Z,977.54
2018-12-15T06:37:42.515Z,977.59
2018-12-15T06:38:42.497Z,977.58
2018-12-15T06:39:42.477Z,977.59
2018-12-15T06:40:42.458Z,977.56
2018-12-15T06:41:42.437Z,977.65
2018-12-15T06:42:42.421Z,977.59
2018-12-15T06:43:42.400Z,977.62
2018-12-15T06:44:42.385Z,977.56
2018-12-15T06:45:42.362Z,977.61
2018-12-15T06:46:42.347Z,977.61
2018-12-15T06:47:42.326Z,977.61
2018-12-15T06:48:42.306Z,977.66
2018-12-15T06:49:42.286Z,977.61
2018-12-15T06:50:42.268Z,977.67
2018-12-15T06:51:42.248Z,977.66
2018-12-15T06:52:42.230Z,977.61
2018-12-15T06:53:42.212Z,977.67
2018-12-15T06:54:42.193Z,977.71
2018-12-15T06:55:42.173Z,977.66
2018-12-15T06:56:42.155Z,977.66
2018-12-15T06:57:42.137Z,977.65
2018-12-15T06:58:42.121Z,977.65
2018-12-15T06:59:42.097Z,977.65
2018-12-15T07:00:42.078Z,977.70
2018-12-15T07:01:42.059Z,977.67
2018-12-15T07:02:42.040Z,977.67
2018-12-15T07:03:42.022Z,977.78
2018-12-15T07:04:42.003Z,977.66
2018-12-15T07:05:41.985Z,977.66
2018-12-15T07:06:42.128Z,977.65
2018-12-15T07:07:41.948Z,977.63
2018-12-15T07:08:41.928Z,977.63
2018-12-15T07:09:41.910Z,977.62
2018-12-15T07:10:41.891Z,977.61
2018-12-15T07:11:41.871Z,977.74
2018-12-15T07:12:41.856Z,977.68
2018-12-15T07:13:41.836Z,977.62
2018-12-15T07:14:41.814Z,977.67
2018-12-15T07:15:41.796Z,977.60
2018-12-15T07:16:41.780Z,977.70
2018-12-15T07:17:41.758Z,977.64
2018-12-15T07:18:44.815Z,977.58
2018-12-15T07:19:41.719Z,977.63
2018-12-15T07:20:41.703Z,977.60
2018-12-15T07:21:41.681Z,977.59
2018-12-15T07:22:41.664Z,977.64
2018-12-15T07:23:41.643Z,977.63
2018-12-15T07:24:41.624Z,977.66
2018-12-15T07:25:41.605Z,977.63
2018-12-15T07:26:41.587Z,977.63
2018-12-15T07:27:41.568Z,977.67
2018-12-15T07:28:41.549Z,977.66
2018-12-15T07:29:41.530Z,977.64
2018-12-15T07:30:41.511Z,977.63
2018-12-15T07:31:41.491Z,977.75
2018-12-15T07:32:41.471Z,977.67
2018-12-15T07:33:41.456Z,977.73
2018-12-15T07:34:41.435Z,977.69
2018-12-15T07:35:41.414Z,977.70
2018-12-15T07:36:41.396Z,977.74
2018-12-15T07:37:41.377Z,977.72
2018-12-15T07:38:41.357Z,977.69
2018-12-15T07:39:41.339Z,977.72
2018-12-15T07:40:41.321Z,977.64
2018-12-15T07:41:41.303Z,977.66
2018-12-15T07:42:41.282Z,977.65
2018-12-15T07:43:41.264Z,977.63
2018-12-15T07:44:41.256Z,977.68
2018-12-15T07:45:41.227Z,977.66
2018-12-15T07:46:41.206Z,977.67
2018-12-15T07:47:41.186Z,977.58
2018-12-15T07:48:41.168Z,977.60
2018-12-15T07:49:41.150Z,977.66
2018-12-15T07:50:41.131Z,977.61
2018-12-15T07:51:41.110Z,977.62
2018-12-15T07:52:41.094Z,977.56
2018-12-15T07:53:41.074Z,977.56
2018-12-15T07:54:41.053Z,977.63
2018-12-15T07:55:41.034Z,977.72
2018-12-15T07:56:41.028Z,977.71
2018-12-15T07:57:40.995Z,977.62
2018-12-15T07:58:40.978Z,977.58
2018-12-15T07:59:40.957Z,977.65
2018-12-15T08:00:40.938Z,977.72
2018-12-15T08:01:40.922Z,977.63
2018-12-15T08:02:40.900Z,977.74
2018-12-15T08:03:40.882Z,977.65
2018-12-15T08:04:40.863Z,977.53
2018-12-15T08:05:40.842Z,977.68
2018-12-15T08:06:40.825Z,977.63
2018-12-15T08:07:40.804Z,977.62
2018-12-15T08:08:40.785Z,977.64
2018-12-15T08:09:40.772Z,977.65
2018-12-15T08:10:40.755Z,977.65
2018-12-15T08:11:40.725Z,977.68
2018-12-15T08:12:40.706Z,977.71
2018-12-15T08:13:40.688Z,977.76
2018-12-15T08:14:40.669Z,977.74
2018-12-15T08:15:40.651Z,977.73
2018-12-15T08:16:40.630Z,977.75
2018-12-15T08:17:40.611Z,977.77
2018-12-15T08:18:40.592Z,977.77
2018-12-15T08:19:40.572Z,977.81
2018-12-15T08:20:40.553Z,977.68
2018-12-15T08:21:40.539Z,977.75
2018-12-15T08:22:40.515Z,977.82
2018-12-15T08:23:40.495Z,977.73
2018-12-15T08:24:40.477Z,977.85
2018-12-15T08:25:40.456Z,977.77
2018-12-15T08:26:40.438Z,977.73
2018-12-15T08:27:40.417Z,977.83
2018-12-15T08:28:40.398Z,977.78
2018-12-15T08:29:40.380Z,977.79
2018-12-15T08:30:40.362Z,977.83
2018-12-15T08:31:40.341Z,977.81
2018-12-15T08:32:40.321Z,977.88
2018-12-15T08:33:40.305Z,977.88
2018-12-15T08:34:40.285Z,977.88
2018-12-15T08:35:40.265Z,977.91
2018-12-15T08:36:40.246Z,977.91
2018-12-15T08:37:40.228Z,977.92
2018-12-15T08:38:40.208Z,977.96
2018-12-15T08:39:40.187Z,977.96
2018-12-15T08:40:40.169Z,977.94
2018-12-15T08:41:40.151Z,977.87
2018-12-15T08:42:40.133Z,977.85
2018-12-15T08:43:40.110Z,977.89
2018-12-15T08:44:40.094Z,977.95
2018-12-15T08:45:40.074Z,977.95
2018-12-15T08:46:40.055Z,977.95
2018-12-15T08:47:40.036Z,977.95
2018-12-15T08:48:40.017Z,977.97
2018-12-15T08:49:39.999Z,977.92
2018-12-15T08:50:39.981Z,977.88
2018-12-15T08:51:39.961Z,977.99
2018-12-15T08:52:39.941Z,977.87
2018-12-15T08:53:39.921Z,977.91
2018-12-15T08:54:39.903Z,977.96
2018-12-15T08:55:39.884Z,978.02
2018-12-15T08:56:39.866Z,978.02
2018-12-15T08:57:39.846Z,977.99
2018-12-15T08:58:39.828Z,977.90
2018-12-15T08:59:39.809Z,977.95
2018-12-15T09:00:39.790Z,978.00
2018-12-15T09:01:39.771Z,978.00
2018-12-15T09:02:39.751Z,978.05
2018-12-15T09:03:39.733Z,978.01
2018-12-15T09:04:39.712Z,977.97
2018-12-15T09:05:39.694Z,978.03
2018-12-15T09:06:39.677Z,978.15
2018-12-15T09:07:39.656Z,978.15
2018-12-15T09:08:39.640Z,978.11
2018-12-15T09:09:39.622Z,978.16
2018-12-15T09:10:39.607Z,978.17
2018-12-15T09:11:39.585Z,978.12
2018-12-15T09:12:39.569Z,978.14
2018-12-15T09:13:39.545Z,978.14
2018-12-15T09:14:39.527Z,978.15
2018-12-15T09:15:39.510Z,978.13
2018-12-15T09:16:39.491Z,978.17
2018-12-15T09:17:39.472Z,978.22
2018-12-15T09:18:39.452Z,978.21
2018-12-15T09:19:39.432Z,978.24
2018-12-15T09:20:39.425Z,978.22
2018-12-15T09:21:39.396Z,978.25
2018-12-15T09:22:39.378Z,978.21
2018-12-15T09:23:39.357Z,978.25
2018-12-15T09:24:39.339Z,978.23
2018-12-15T09:25:39.321Z,978.23
2018-12-15T09:26:39.301Z,978.23
2018-12-15T09:27:39.283Z,978.23
2018-12-15T09:28:39.263Z,978.23
2018-12-15T09:29:39.246Z,978.25
2018-12-15T09:30:39.228Z,978.26
2018-12-15T09:31:39.210Z,978.25
2018-12-15T09:32:39.188Z,978.27
2018-12-15T09:33:39.172Z,978.27
2018-12-15T09:34:39.156Z,978.29
2018-12-15T09:35:39.133Z,978.28
2018-12-15T09:36:39.114Z,978.29
2018-12-15T09:37:39.099Z,978.32
2018-12-15T09:38:39.079Z,978.30
2018-12-15T09:39:39.062Z,978.30
2018-12-15T09:40:39.043Z,978.31
2018-12-15T09:41:39.022Z,978.28
2018-12-15T09:42:39.004Z,978.27
2018-12-15T09:43:38.985Z,978.32
2018-12-15T09:44:38.969Z,978.32
2018-12-15T09:45:38.950Z,978.29
2018-12-15T09:46:38.935Z,978.30
2018-12-15T09:47:38.917Z,978.29
2018-12-15T09:48:38.898Z,978.29
2018-12-15T09:49:38.878Z,978.27
2018-12-15T09:50:38.860Z,978.27
2018-12-15T09:51:38.839Z,978.26
2018-12-15T09:52:38.822Z,978.28
2018-12-15T09:53:38.804Z,978.29
2018-12-15T09:54:38.784Z,978.27
2018-12-15T09:55:38.772Z,978.27
2018-12-15T09:56:38.748Z,978.27
2018-12-15T09:57:38.731Z,978.28
2018-12-15T09:58:38.713Z,978.28
2018-12-15T09:59:38.699Z,978.28
2018-12-15T10:00:38.677Z,978.21
2018-12-15T10:01:38.656Z,978.23
2018-12-15T10:02:38.641Z,978.22
2018-12-15T10:03:38.622Z,978.23
2018-12-15T10:04:38.604Z,978.29
2018-12-15T10:05:38.587Z,978.28
2018-12-15T10:06:38.570Z,978.28
2018-12-15T10:07:38.550Z,978.21
2018-12-15T10:08:38.532Z,978.17
2018-12-15T10:09:38.517Z,978.22
2018-12-15T10:10:38.498Z,978.19
2018-12-15T10:11:38.480Z,978.22
2018-12-15T10:12:38.462Z,978.23
2018-12-15T10:13:38.445Z,978.18
2018-12-15T10:14:38.427Z,978.18
2018-12-15T10:15:38.408Z,978.15
2018-12-15T10:16:38.391Z,978.19
2018-12-15T10:17:38.371Z,978.18
2018-12-15T10:18:38.355Z,978.17
2018-12-15T10:19:38.336Z,978.16
2018-12-15T10:20:38.318Z,978.13
2018-12-15T10:21:38.300Z,978.17
2018-12-15T10:22:38.282Z,978.17
2018-12-15T10:23:38.263Z,978.10
2018-12-15T10:24:38.246Z,978.10
2018-12-15T10:25:38.228Z,978.15
2018-12-15T10:26:38.210Z,978.11
2018-12-15T10:27:38.192Z,978.09
2018-12-15T10:28:38.178Z,978.07
2018-12-15T10:29:38.158Z,978.09
2018-12-15T10:30:38.138Z,978.12
2018-12-15T10:31:38.119Z,978.09
2018-12-15T10:32:38.099Z,978.06
2018-12-15T10:33:38.083Z,978.04
2018-12-15T10:34:38.063Z,978.02
2018-12-15T10:35:38.046Z,978.00
2018-12-15T10:36:38.031Z,977.94
2018-12-15T10:37:38.009Z,978.00
2018-12-15T10:38:37.991Z,977.97
2018-12-15T10:39:37.971Z,977.95
2018-12-15T10:40:37.955Z,977.95
2018-12-15T10:41:37.937Z,977.97
2018-12-15T10:42:37.919Z,977.90
2018-12-15T10:43:37.904Z,977.93
2018-12-15T10:44:37.881Z,977.86
2018-12-15T10:45:37.865Z,977.97
2018-12-15T10:46:37.846Z,977.95
2018-12-15T10:47:37.828Z,977.95
2018-12-15T10:48:37.812Z,977.84
2018-12-15T10:49:37.793Z,977.79
2018-12-15T10:50:37.779Z,977.80
2018-12-15T10:51:37.756Z,977.77
2018-12-15T10:52:37.736Z,977.74
2018-12-15T10:53:37.720Z,977.73
2018-12-15T10:54:37.703Z,977.73
2018-12-15T10:55:37.685Z,977.74
2018-12-15T10:56:37.665Z,977.70
2018-12-15T10:57:37.646Z,977.72
2018-12-15T10:58:37.628Z,977.68
2018-12-15T10:59:37.609Z,977.69
2018-12-15T11:00:37.591Z,977.66
2018-12-15T11:01:37.573Z,977.71
2018-12-15T11:02:37.559Z,977.71
2018-12-15T11:03:37.537Z,977.66
2018-12-15T11:04:37.519Z,977.73
2018-12-15T11:05:37.501Z,977.71
2018-12-15T11:06:37.484Z,977.65
2018-12-15T11:07:37.464Z,977.64
2018-12-15T11:08:37.447Z,977.65
2018-12-15T11:09:37.435Z,977.60
2018-12-15T11:10:37.413Z,977.62
2018-12-15T11:11:37.392Z,977.59
2018-12-15T11:12:37.378Z,977.57
2018-12-15T11:13:37.357Z,977.51
2018-12-15T11:14:37.338Z,977.52
2018-12-15T11:15:37.320Z,977.44
2018-12-15T11:16:37.302Z,977.46
2018-12-15T11:17:37.287Z,977.50
2018-12-15T11:18:37.267Z,977.45
2018-12-15T11:19:37.401Z,977.55
2018-12-15T11:20:37.231Z,977.43
2018-12-15T11:21:37.215Z,977.46
2018-12-15T11:22:37.195Z,977.36
2018-12-15T11:23:37.177Z,977.40
2018-12-15T11:24:37.158Z,977.38
2018-12-15T11:25:37.141Z,977.31
2018-12-15T11:26:37.122Z,977.38
2018-12-15T11:27:37.103Z,977.33
2018-12-15T11:28:37.086Z,977.31
2018-12-15T11:29:37.069Z,977.22
2018-12-15T11:30:37.051Z,977.29
2018-12-15T11:31:37.030Z,977.29
2018-12-15T11:32:37.014Z,977.22
2018-12-15T11:33:36.995Z,977.20
2018-12-15T11:34:36.980Z,977.21
2018-12-15T11:35:36.963Z,977.28
2018-12-15T11:36:36.943Z,977.20
2018-12-15T11:37:36.924Z,977.23
2018-12-15T11:38:36.906Z,977.21
2018-12-15T11:39:36.888Z,977.18
2018-12-15T11:40:36.871Z,977.21
2018-12-15T11:41:36.855Z,977.18
2018-12-15T11:42:36.836Z,977.16
2018-12-15T11:43:36.815Z,977.16
2018-12-15T11:44:36.798Z,977.11
2018-12-15T11:45:36.779Z,977.12
2018-12-15T11:46:36.762Z,977.03
2018-12-15T11:47:36.745Z,977.00
2018-12-15T11:48:36.728Z,976.95
2018-12-15T11:49:36.708Z,976.94
2018-12-15T11:50:36.690Z,976.99
2018-12-15T11:51:36.672Z,976.96
2018-12-15T11:52:36.654Z,977.06
2018-12-15T11:53:36.634Z,976.94
2018-12-15T11:54:36.620Z,976.95
2018-12-15T11:55:36.600Z,976.89
2018-12-15T11:56:36.584Z,976.89
2018-12-15T11:57:36.562Z,976.95
2018-12-15T11:58:36.547Z,976.94
2018-12-15T11:59:36.529Z,976.89
2018-12-15T12:00:36.511Z,976.84
2018-12-15T12:01:36.498Z,976.89
2018-12-15T12:02:36.474Z,976.85
2018-12-15T12:03:36.456Z,976.81
2018-12-15T12:04:36.438Z,976.79
2018-12-15T12:05:36.421Z,976.82
2018-12-15T12:06:36.407Z,976.78
2018-12-15T12:07:36.387Z,976.79
2018-12-15T12:08:36.366Z,976.79
2018-12-15T12:09:36.352Z,976.73
2018-12-15T12:10:36.335Z,976.77
2018-12-15T12:11:36.313Z,976.74
2018-12-15T12:12:36.298Z,976.78
2018-12-15T12:13:36.280Z,976.75
2018-12-15T12:14:36.260Z,976.77
2018-12-15T12:15:36.243Z,976.74
2018-12-15T12:16:36.226Z,976.75
2018-12-15T12:17:36.207Z,976.80
2018-12-15T12:18:36.190Z,976.77
2018-12-15T12:19:36.170Z,976.80
2018-12-15T12:20:36.152Z,976.78
2018-12-15T12:21:36.137Z,976.83
2018-12-15T12:22:36.119Z,976.84
2018-12-15T12:23:36.100Z,976.85
2018-12-15T12:24:36.087Z,976.84
2018-12-15T12:25:36.066Z,976.76
2018-12-15T12:26:36.053Z,976.82
2018-12-15T12:27:36.030Z,976.89
2018-12-15T12:28:36.012Z,976.83
2018-12-15T12:29:35.996Z,976.81